Airfield :
LOGIN :

Register | Disclaimer

   EN    FR    IT 

 










Legend :    VFR   Marginal VFR   IFR   Intensive IFR   Very Intensive IFR
Visi :
Ceiling :
>= 8 km
>= 3000ft
5 to 8 km
1000 to 3000 ft
1500m to 5 km
500 to 1000 ft
800 to 1500m
200 to 500 ft
< 800m
< 200 ft
Symbols :   Thunderstorms  Fog  Heavy snow  Heavy precipitations  Wind > 20 kt
SIGMETs :     Misc.  Thunderstorms  Icing  Turbulence  Mountain Waves  Volcanic Ashes






- Airport Elevation : 164 ft
- IATA code : VBY


ESSV - Visby

CURRENT METAR :
  • 172050Z AUTO 12006KT 5000 FEW003/// BKN017/// BKN023/// 10/10 Q1011 REUP

EXPIRED METARs :
  • 172020Z 15007KT 1500 BR BKN002 10/09 Q1011
  • 171950Z 14006KT 8000 BKN003 10/09 Q1011
  • 171920Z 14006KT 9999 BKN005 09/09 Q1011
  • 171850Z 15006KT 9999 BKN014 09/09 Q1011
  • 171820Z 16006KT 9999 SCT004 BKN024 09/09 Q1011

TAF TAF ESSV
Valid from the 17 at 18:00 until the 17 at 22:00 UTC


171830Z 1718/1722 16003KT 9999 BKN015
PROB40 1718/1722 2000 -DZ BCFG VV002



MET'MAP, your aeronautical weather chart ! - Copyright ORBIFLY December 2007 - Disclaimer

ORBIFLY MET'MAP TEAM :

Programming & Development : Alexandra Zaïnal
Concept & Development : Baudouin d'Aumeries
Co-Development & Prog : Marc-Olivier Méhu
Technical & hardware support : Manuel Goepfert

Contact : metmap@orbifly.com




SOURCES & CREDITS :

   NOAA